sensor_id;sensor_type;location;lat;lon;timestamp;temperature;humidity
37300;DHT22;23184;51.902;12.836;2022-11-13T00:00:50;6.00;99.90
37300;DHT22;23184;51.902;12.836;2022-11-13T00:03:15;6.00;99.90
37300;DHT22;23184;51.902;12.836;2022-11-13T00:05:41;5.90;99.90
37300;DHT22;23184;51.902;12.836;2022-11-13T00:08:06;5.90;99.90
37300;DHT22;23184;51.902;12.836;2022-11-13T00:10:32;5.90;99.90
37300;DHT22;23184;51.902;12.836;2022-11-13T00:12:57;5.90;99.90
37300;DHT22;23184;51.902;12.836;2022-11-13T00:15:23;5.90;99.90
37300;DHT22;23184;51.902;12.836;2022-11-13T00:17:48;5.90;99.90
37300;DHT22;23184;51.902;12.836;2022-11-13T00:20:14;5.80;99.90
37300;DHT22;23184;51.902;12.836;2022-11-13T00:22:39;5.80;99.90
37300;DHT22;23184;51.902;12.836;2022-11-13T00:25:05;5.80;99.90
37300;DHT22;23184;51.902;12.836;2022-11-13T00:27:31;5.80;99.90
37300;DHT22;23184;51.902;12.836;2022-11-13T00:29:56;5.80;99.90
37300;DHT22;23184;51.902;12.836;2022-11-13T00:32:22;5.80;99.90
37300;DHT22;23184;51.902;12.836;2022-11-13T00:34:47;5.70;99.90
37300;DHT22;23184;51.902;12.836;2022-11-13T00:37:13;5.80;99.90
37300;DHT22;23184;51.902;12.836;2022-11-13T00:39:39;5.70;99.90
37300;DHT22;23184;51.902;12.836;2022-11-13T00:42:04;5.80;99.90
37300;DHT22;23184;51.902;12.836;2022-11-13T00:44:30;5.80;99.90
37300;DHT22;23184;51.902;12.836;2022-11-13T00:46:57;5.70;99.90
37300;DHT22;23184;51.902;12.836;2022-11-13T00:49:22;5.80;99.90
37300;DHT22;23184;51.902;12.836;2022-11-13T00:51:48;5.70;99.90
37300;DHT22;23184;51.902;12.836;2022-11-13T00:54:13;5.80;99.90
37300;DHT22;23184;51.902;12.836;2022-11-13T00:56:39;5.70;99.90
37300;DHT22;23184;51.902;12.836;2022-11-13T00:59:04;5.60;99.90
37300;DHT22;23184;51.902;12.836;2022-11-13T01:01:30;5.60;99.90
37300;DHT22;23184;51.902;12.836;2022-11-13T01:03:55;5.60;99.90
37300;DHT22;23184;51.902;12.836;2022-11-13T01:06:25;5.60;99.90
37300;DHT22;23184;51.902;12.836;2022-11-13T01:08:54;5.60;99.90
37300;DHT22;23184;51.902;12.836;2022-11-13T01:11:21;5.70;99.90
37300;DHT22;23184;51.902;12.836;2022-11-13T01:13:48;5.70;99.90
37300;DHT22;23184;51.902;12.836;2022-11-13T01:16:15;5.70;99.90
37300;DHT22;23184;51.902;12.836;2022-11-13T01:18:42;5.70;99.90
37300;DHT22;23184;51.902;12.836;2022-11-13T01:21:13;5.70;99.90
37300;DHT22;23184;51.902;12.836;2022-11-13T01:23:39;5.70;99.90
37300;DHT22;23184;51.902;12.836;2022-11-13T01:28:42;5.60;99.90
37300;DHT22;23184;51.902;12.836;2022-11-13T01:31:10;5.60;99.90
37300;DHT22;23184;51.902;12.836;2022-11-13T01:33:36;5.60;99.90
37300;DHT22;23184;51.902;12.836;2022-11-13T01:36:11;5.50;99.90
37300;DHT22;23184;51.902;12.836;2022-11-13T01:38:37;5.40;99.90
37300;DHT22;23184;51.902;12.836;2022-11-13T01:41:04;5.30;99.90
37300;DHT22;23184;51.902;12.836;2022-11-13T01:43:35;5.20;99.90
37300;DHT22;23184;51.902;12.836;2022-11-13T01:46:08;5.10;99.90
37300;DHT22;23184;51.902;12.836;2022-11-13T01:48:44;5.10;99.90
37300;DHT22;23184;51.902;12.836;2022-11-13T01:51:16;5.10;99.90
37300;DHT22;23184;51.902;12.836;2022-11-13T01:53:44;5.00;99.90
37300;DHT22;23184;51.902;12.836;2022-11-13T01:56:11;4.90;99.90
37300;DHT22;23184;51.902;12.836;2022-11-13T01:58:38;4.80;99.90
37300;DHT22;23184;51.902;12.836;2022-11-13T02:01:05;4.80;99.90
37300;DHT22;23184;51.902;12.836;2022-11-13T02:03:30;4.80;99.90
37300;DHT22;23184;51.902;12.836;2022-11-13T02:05:56;4.70;99.90
37300;DHT22;23184;51.902;12.836;2022-11-13T02:08:22;4.80;99.90
37300;DHT22;23184;51.902;12.836;2022-11-13T02:10:47;4.60;99.90
37300;DHT22;23184;51.902;12.836;2022-11-13T02:13:13;4.40;99.90
37300;DHT22;23184;51.902;12.836;2022-11-13T02:15:40;4.30;99.90
37300;DHT22;23184;51.902;12.836;2022-11-13T02:18:06;4.20;99.90
37300;DHT22;23184;51.902;12.836;2022-11-13T02:20:43;4.20;99.90
37300;DHT22;23184;51.902;12.836;2022-11-13T02:23:20;4.20;99.90
37300;DHT22;23184;51.902;12.836;2022-11-13T02:25:48;4.20;99.90
37300;DHT22;23184;51.902;12.836;2022-11-13T02:28:15;4.40;99.90
37300;DHT22;23184;51.902;12.836;2022-11-13T02:30:40;4.50;99.90
37300;DHT22;23184;51.902;12.836;2022-11-13T02:33:27;4.60;99.90
37300;DHT22;23184;51.902;12.836;2022-11-13T02:35:52;4.80;99.90
37300;DHT22;23184;51.902;12.836;2022-11-13T02:38:18;4.80;99.90
37300;DHT22;23184;51.902;12.836;2022-11-13T02:40:43;5.00;99.90
37300;DHT22;23184;51.902;12.836;2022-11-13T02:43:09;5.10;99.90
37300;DHT22;23184;51.902;12.836;2022-11-13T02:45:35;5.10;99.90
37300;DHT22;23184;51.902;12.836;2022-11-13T02:48:03;5.20;99.90
37300;DHT22;23184;51.902;12.836;2022-11-13T02:50:29;5.20;99.90
37300;DHT22;23184;51.902;12.836;2022-11-13T02:52:55;5.20;99.90
37300;DHT22;23184;51.902;12.836;2022-11-13T02:55:21;5.20;99.90
37300;DHT22;23184;51.902;12.836;2022-11-13T02:57:46;5.10;99.90
37300;DHT22;23184;51.902;12.836;2022-11-13T03:00:12;5.10;99.90
37300;DHT22;23184;51.902;12.836;2022-11-13T03:02:38;5.10;99.90
37300;DHT22;23184;51.902;12.836;2022-11-13T03:05:04;5.10;99.90
37300;DHT22;23184;51.902;12.836;2022-11-13T03:07:30;5.10;99.90
37300;DHT22;23184;51.902;12.836;2022-11-13T03:09:55;5.10;99.90
37300;DHT22;23184;51.902;12.836;2022-11-13T03:12:22;5.10;99.90
37300;DHT22;23184;51.902;12.836;2022-11-13T03:14:47;5.00;99.90
37300;DHT22;23184;51.902;12.836;2022-11-13T03:17:13;5.00;99.90
37300;DHT22;23184;51.902;12.836;2022-11-13T03:19:38;5.00;99.90
37300;DHT22;23184;51.902;12.836;2022-11-13T03:22:04;5.00;99.90
37300;DHT22;23184;51.902;12.836;2022-11-13T03:24:29;4.90;99.90
37300;DHT22;23184;51.902;12.836;2022-11-13T03:26:55;4.90;99.90
37300;DHT22;23184;51.902;12.836;2022-11-13T03:29:20;4.90;99.90
37300;DHT22;23184;51.902;12.836;2022-11-13T03:31:46;5.00;99.90
37300;DHT22;23184;51.902;12.836;2022-11-13T03:34:12;4.90;99.90
37300;DHT22;23184;51.902;12.836;2022-11-13T03:36:37;4.90;99.90
37300;DHT22;23184;51.902;12.836;2022-11-13T03:39:03;4.90;99.90
37300;DHT22;23184;51.902;12.836;2022-11-13T03:41:29;5.00;99.90
37300;DHT22;23184;51.902;12.836;2022-11-13T03:43:54;5.00;99.90
37300;DHT22;23184;51.902;12.836;2022-11-13T03:46:20;5.00;99.90
37300;DHT22;23184;51.902;12.836;2022-11-13T03:48:45;5.00;99.90
37300;DHT22;23184;51.902;12.836;2022-11-13T03:51:11;5.10;99.90
37300;DHT22;23184;51.902;12.836;2022-11-13T03:53:36;5.10;99.90
37300;DHT22;23184;51.902;12.836;2022-11-13T03:56:02;5.10;99.90
37300;DHT22;23184;51.902;12.836;2022-11-13T03:58:28;5.10;99.90
37300;DHT22;23184;51.902;12.836;2022-11-13T04:00:54;5.10;99.90
37300;DHT22;23184;51.902;12.836;2022-11-13T04:03:20;5.20;99.90
37300;DHT22;23184;51.902;12.836;2022-11-13T04:05:48;5.20;99.90
37300;DHT22;23184;51.902;12.836;2022-11-13T04:08:14;5.20;99.90
37300;DHT22;23184;51.902;12.836;2022-11-13T04:10:40;5.30;99.90
37300;DHT22;23184;51.902;12.836;2022-11-13T04:13:05;5.30;99.90
37300;DHT22;23184;51.902;12.836;2022-11-13T04:15:31;5.30;99.90
37300;DHT22;23184;51.902;12.836;2022-11-13T04:17:57;5.40;99.90
37300;DHT22;23184;51.902;12.836;2022-11-13T04:20:23;5.30;99.90
37300;DHT22;23184;51.902;12.836;2022-11-13T04:22:49;5.30;99.90
37300;DHT22;23184;51.902;12.836;2022-11-13T04:25:15;5.20;99.90
37300;DHT22;23184;51.902;12.836;2022-11-13T04:27:40;5.20;99.90
37300;DHT22;23184;51.902;12.836;2022-11-13T04:30:06;5.20;99.90
37300;DHT22;23184;51.902;12.836;2022-11-13T04:32:32;5.10;99.90
37300;DHT22;23184;51.902;12.836;2022-11-13T04:34:57;5.10;99.90
37300;DHT22;23184;51.902;12.836;2022-11-13T04:37:23;5.00;99.90
37300;DHT22;23184;51.902;12.836;2022-11-13T04:39:49;4.90;99.90
37300;DHT22;23184;51.902;12.836;2022-11-13T04:42:14;4.90;99.90
37300;DHT22;23184;51.902;12.836;2022-11-13T04:44:58;4.80;99.90
37300;DHT22;23184;51.902;12.836;2022-11-13T04:47:24;4.80;99.90
37300;DHT22;23184;51.902;12.836;2022-11-13T04:49:49;4.80;99.90
37300;DHT22;23184;51.902;12.836;2022-11-13T04:52:15;4.70;99.90
37300;DHT22;23184;51.902;12.836;2022-11-13T04:54:40;4.70;99.90
37300;DHT22;23184;51.902;12.836;2022-11-13T04:57:06;4.70;99.90
37300;DHT22;23184;51.902;12.836;2022-11-13T04:59:31;4.70;99.90
37300;DHT22;23184;51.902;12.836;2022-11-13T05:01:57;4.70;99.90
37300;DHT22;23184;51.902;12.836;2022-11-13T05:04:23;4.70;99.90
37300;DHT22;23184;51.902;12.836;2022-11-13T05:06:48;4.80;99.90
37300;DHT22;23184;51.902;12.836;2022-11-13T05:09:14;4.90;99.90
37300;DHT22;23184;51.902;12.836;2022-11-13T05:11:40;4.90;99.90
37300;DHT22;23184;51.902;12.836;2022-11-13T05:14:05;5.00;99.90
37300;DHT22;23184;51.902;12.836;2022-11-13T05:16:34;5.00;99.90
37300;DHT22;23184;51.902;12.836;2022-11-13T05:19:01;5.00;99.90
37300;DHT22;23184;51.902;12.836;2022-11-13T05:21:31;5.00;99.90
37300;DHT22;23184;51.902;12.836;2022-11-13T05:23:57;5.00;99.90
37300;DHT22;23184;51.902;12.836;2022-11-13T05:26:23;5.00;99.90
37300;DHT22;23184;51.902;12.836;2022-11-13T05:28:48;5.00;99.90
37300;DHT22;23184;51.902;12.836;2022-11-13T05:31:15;4.90;99.90
37300;DHT22;23184;51.902;12.836;2022-11-13T05:33:41;4.90;99.90
37300;DHT22;23184;51.902;12.836;2022-11-13T05:36:12;4.90;99.90
37300;DHT22;23184;51.902;12.836;2022-11-13T05:38:39;4.90;99.90
37300;DHT22;23184;51.902;12.836;2022-11-13T05:43:32;4.90;99.90
37300;DHT22;23184;51.902;12.836;2022-11-13T05:46:12;4.80;99.90
37300;DHT22;23184;51.902;12.836;2022-11-13T05:48:39;4.90;99.90
37300;DHT22;23184;51.902;12.836;2022-11-13T05:51:07;4.90;99.90
37300;DHT22;23184;51.902;12.836;2022-11-13T05:53:33;4.90;99.90
37300;DHT22;23184;51.902;12.836;2022-11-13T05:56:04;4.90;99.90
37300;DHT22;23184;51.902;12.836;2022-11-13T05:58:31;4.90;99.90
37300;DHT22;23184;51.902;12.836;2022-11-13T06:01:17;4.90;99.90
37300;DHT22;23184;51.902;12.836;2022-11-13T06:03:43;4.90;99.90
37300;DHT22;23184;51.902;12.836;2022-11-13T06:06:11;4.90;99.90
37300;DHT22;23184;51.902;12.836;2022-11-13T06:08:38;4.90;99.90
37300;DHT22;23184;51.902;12.836;2022-11-13T06:11:09;5.00;99.90
37300;DHT22;23184;51.902;12.836;2022-11-13T06:13:35;5.00;99.90
37300;DHT22;23184;51.902;12.836;2022-11-13T06:16:12;5.00;99.90
37300;DHT22;23184;51.902;12.836;2022-11-13T06:18:39;5.10;99.90
37300;DHT22;23184;51.902;12.836;2022-11-13T06:21:10;5.10;99.90
37300;DHT22;23184;51.902;12.836;2022-11-13T06:23:37;5.20;99.90
37300;DHT22;23184;51.902;12.836;2022-11-13T06:26:26;5.30;99.90
37300;DHT22;23184;51.902;12.836;2022-11-13T06:28:50;5.50;99.90
37300;DHT22;23184;51.902;12.836;2022-11-13T06:31:20;5.60;99.90
37300;DHT22;23184;51.902;12.836;2022-11-13T06:33:46;5.70;99.90
37300;DHT22;23184;51.902;12.836;2022-11-13T06:36:14;5.80;99.90
37300;DHT22;23184;51.902;12.836;2022-11-13T06:38:41;5.90;99.90
37300;DHT22;23184;51.902;12.836;2022-11-13T06:41:08;6.00;99.90
37300;DHT22;23184;51.902;12.836;2022-11-13T06:43:34;6.10;99.90
37300;DHT22;23184;51.902;12.836;2022-11-13T06:46:03;6.20;99.90
37300;DHT22;23184;51.902;12.836;2022-11-13T06:48:29;6.30;99.90
37300;DHT22;23184;51.902;12.836;2022-11-13T06:50:58;6.40;99.90
37300;DHT22;23184;51.902;12.836;2022-11-13T06:53:24;6.40;99.90
37300;DHT22;23184;51.902;12.836;2022-11-13T06:55:50;6.50;99.90
37300;DHT22;23184;51.902;12.836;2022-11-13T06:58:15;6.50;99.90
37300;DHT22;23184;51.902;12.836;2022-11-13T07:00:41;6.60;99.90
37300;DHT22;23184;51.902;12.836;2022-11-13T07:03:22;6.60;99.90
37300;DHT22;23184;51.902;12.836;2022-11-13T07:05:48;6.70;99.90
37300;DHT22;23184;51.902;12.836;2022-11-13T07:08:14;6.80;99.90
37300;DHT22;23184;51.902;12.836;2022-11-13T07:10:40;6.80;99.90
37300;DHT22;23184;51.902;12.836;2022-11-13T07:13:06;6.90;99.90
37300;DHT22;23184;51.902;12.836;2022-11-13T07:15:37;6.90;99.90
37300;DHT22;23184;51.902;12.836;2022-11-13T07:18:04;7.00;99.90
37300;DHT22;23184;51.902;12.836;2022-11-13T07:20:30;7.00;99.90
37300;DHT22;23184;51.902;12.836;2022-11-13T07:22:57;7.10;99.90
37300;DHT22;23184;51.902;12.836;2022-11-13T07:25:24;7.20;99.90
37300;DHT22;23184;51.902;12.836;2022-11-13T07:27:50;7.20;99.90
37300;DHT22;23184;51.902;12.836;2022-11-13T07:30:16;7.30;99.90
37300;DHT22;23184;51.902;12.836;2022-11-13T07:32:41;7.30;99.90
37300;DHT22;23184;51.902;12.836;2022-11-13T07:35:07;7.40;99.90
37300;DHT22;23184;51.902;12.836;2022-11-13T07:37:33;7.50;99.90
37300;DHT22;23184;51.902;12.836;2022-11-13T07:39:58;7.50;99.90
37300;DHT22;23184;51.902;12.836;2022-11-13T07:42:24;7.60;99.90
37300;DHT22;23184;51.902;12.836;2022-11-13T07:44:49;7.60;99.90
37300;DHT22;23184;51.902;12.836;2022-11-13T07:47:15;7.70;99.90
37300;DHT22;23184;51.902;12.836;2022-11-13T07:49:41;7.70;99.90
37300;DHT22;23184;51.902;12.836;2022-11-13T07:52:06;7.80;99.90
37300;DHT22;23184;51.902;12.836;2022-11-13T07:54:32;7.90;99.90
37300;DHT22;23184;51.902;12.836;2022-11-13T07:56:58;7.90;99.90
37300;DHT22;23184;51.902;12.836;2022-11-13T07:59:23;8.00;99.90
37300;DHT22;23184;51.902;12.836;2022-11-13T08:01:49;8.10;99.90
37300;DHT22;23184;51.902;12.836;2022-11-13T08:04:14;8.10;99.90
37300;DHT22;23184;51.902;12.836;2022-11-13T08:06:40;8.00;99.90
37300;DHT22;23184;51.902;12.836;2022-11-13T08:09:05;8.10;99.90
37300;DHT22;23184;51.902;12.836;2022-11-13T08:11:31;8.10;99.90
37300;DHT22;23184;51.902;12.836;2022-11-13T08:13:56;8.10;99.90
37300;DHT22;23184;51.902;12.836;2022-11-13T08:16:22;8.20;99.90
37300;DHT22;23184;51.902;12.836;2022-11-13T08:18:48;8.30;99.90
37300;DHT22;23184;51.902;12.836;2022-11-13T08:21:14;8.20;99.90
37300;DHT22;23184;51.902;12.836;2022-11-13T08:23:41;8.10;99.90
37300;DHT22;23184;51.902;12.836;2022-11-13T08:26:07;8.20;99.90
37300;DHT22;23184;51.902;12.836;2022-11-13T08:28:34;8.30;99.90
37300;DHT22;23184;51.902;12.836;2022-11-13T08:31:01;8.30;99.90
37300;DHT22;23184;51.902;12.836;2022-11-13T08:33:28;8.30;99.90
37300;DHT22;23184;51.902;12.836;2022-11-13T08:35:55;8.30;99.90
37300;DHT22;23184;51.902;12.836;2022-11-13T08:38:21;8.20;99.90
37300;DHT22;23184;51.902;12.836;2022-11-13T08:40:47;8.30;99.90
37300;DHT22;23184;51.902;12.836;2022-11-13T08:43:12;8.30;99.90
37300;DHT22;23184;51.902;12.836;2022-11-13T08:45:38;8.30;99.90
37300;DHT22;23184;51.902;12.836;2022-11-13T08:48:04;8.30;99.90
37300;DHT22;23184;51.902;12.836;2022-11-13T08:50:31;8.30;99.90
37300;DHT22;23184;51.902;12.836;2022-11-13T08:52:58;8.30;99.90
37300;DHT22;23184;51.902;12.836;2022-11-13T08:55:25;8.20;99.90
37300;DHT22;23184;51.902;12.836;2022-11-13T08:57:51;8.20;99.90
37300;DHT22;23184;51.902;12.836;2022-11-13T09:00:17;8.20;99.90
37300;DHT22;23184;51.902;12.836;2022-11-13T09:02:44;8.20;99.90
37300;DHT22;23184;51.902;12.836;2022-11-13T09:05:09;8.30;99.90
37300;DHT22;23184;51.902;12.836;2022-11-13T09:07:35;8.20;99.90
37300;DHT22;23184;51.902;12.836;2022-11-13T09:10:01;8.20;99.90
37300;DHT22;23184;51.902;12.836;2022-11-13T09:12:26;8.20;99.90
37300;DHT22;23184;51.902;12.836;2022-11-13T09:14:52;8.20;99.90
37300;DHT22;23184;51.902;12.836;2022-11-13T09:17:18;8.30;99.90
37300;DHT22;23184;51.902;12.836;2022-11-13T09:19:44;8.30;99.90
37300;DHT22;23184;51.902;12.836;2022-11-13T09:22:10;8.40;99.90
37300;DHT22;23184;51.902;12.836;2022-11-13T09:24:35;8.40;99.90
37300;DHT22;23184;51.902;12.836;2022-11-13T09:27:01;8.40;99.90
37300;DHT22;23184;51.902;12.836;2022-11-13T09:29:26;8.40;99.90
37300;DHT22;23184;51.902;12.836;2022-11-13T09:31:53;8.40;99.90
37300;DHT22;23184;51.902;12.836;2022-11-13T09:34:19;8.30;99.90
37300;DHT22;23184;51.902;12.836;2022-11-13T09:36:45;8.40;99.90
37300;DHT22;23184;51.902;12.836;2022-11-13T09:39:11;8.40;99.90
37300;DHT22;23184;51.902;12.836;2022-11-13T09:41:46;8.40;99.90
37300;DHT22;23184;51.902;12.836;2022-11-13T09:44:31;8.40;99.90
37300;DHT22;23184;51.902;12.836;2022-11-13T09:47:11;8.40;99.90
37300;DHT22;23184;51.902;12.836;2022-11-13T09:49:45;8.50;99.90
37300;DHT22;23184;51.902;12.836;2022-11-13T09:52:15;8.40;99.90
37300;DHT22;23184;51.902;12.836;2022-11-13T09:54:41;8.40;99.90
37300;DHT22;23184;51.902;12.836;2022-11-13T10:02:44;8.60;99.90
37300;DHT22;23184;51.902;12.836;2022-11-13T10:08:06;8.80;99.90
37300;DHT22;23184;51.902;12.836;2022-11-13T10:10:48;8.70;99.90
37300;DHT22;23184;51.902;12.836;2022-11-13T10:13:22;8.70;99.90
37300;DHT22;23184;51.902;12.836;2022-11-13T10:15:51;8.70;99.90
37300;DHT22;23184;51.902;12.836;2022-11-13T10:18:34;8.70;99.90
37300;DHT22;23184;51.902;12.836;2022-11-13T10:23:55;8.80;99.90
37300;DHT22;23184;51.902;12.836;2022-11-13T10:26:23;8.90;99.90
37300;DHT22;23184;51.902;12.836;2022-11-13T10:28:58;8.90;99.90
37300;DHT22;23184;51.902;12.836;2022-11-13T10:31:25;8.90;99.90
37300;DHT22;23184;51.902;12.836;2022-11-13T10:33:53;9.00;99.90
37300;DHT22;23184;51.902;12.836;2022-11-13T10:36:30;9.00;99.90
37300;DHT22;23184;51.902;12.836;2022-11-13T10:39:05;9.10;99.90
37300;DHT22;23184;51.902;12.836;2022-11-13T10:41:32;9.00;99.90
37300;DHT22;23184;51.902;12.836;2022-11-13T10:44:03;9.10;99.90
37300;DHT22;23184;51.902;12.836;2022-11-13T10:46:30;9.10;99.90
37300;DHT22;23184;51.902;12.836;2022-11-13T10:48:56;9.20;99.90
37300;DHT22;23184;51.902;12.836;2022-11-13T10:51:31;9.20;99.90
37300;DHT22;23184;51.902;12.836;2022-11-13T10:53:58;9.20;99.90
37300;DHT22;23184;51.902;12.836;2022-11-13T10:56:27;9.20;99.90
37300;DHT22;23184;51.902;12.836;2022-11-13T10:59:13;9.30;99.90
37300;DHT22;23184;51.902;12.836;2022-11-13T11:01:39;9.20;99.90
37300;DHT22;23184;51.902;12.836;2022-11-13T11:04:09;9.20;99.90
37300;DHT22;23184;51.902;12.836;2022-11-13T11:06:38;9.20;99.90
37300;DHT22;23184;51.902;12.836;2022-11-13T11:09:06;9.20;99.90
37300;DHT22;23184;51.902;12.836;2022-11-13T11:11:32;9.20;99.90
37300;DHT22;23184;51.902;12.836;2022-11-13T11:14:27;9.40;99.90
37300;DHT22;23184;51.902;12.836;2022-11-13T11:16:54;9.30;99.90
37300;DHT22;23184;51.902;12.836;2022-11-13T11:19:24;9.20;99.90
37300;DHT22;23184;51.902;12.836;2022-11-13T11:21:57;9.10;99.90
37300;DHT22;23184;51.902;12.836;2022-11-13T11:24:32;9.20;99.90
37300;DHT22;23184;51.902;12.836;2022-11-13T11:27:18;9.20;99.90
37300;DHT22;23184;51.902;12.836;2022-11-13T11:30:00;9.20;99.90
37300;DHT22;23184;51.902;12.836;2022-11-13T11:35:14;9.10;99.90
37300;DHT22;23184;51.902;12.836;2022-11-13T11:38:00;9.10;99.90
37300;DHT22;23184;51.902;12.836;2022-11-13T11:40:41;9.20;99.90
37300;DHT22;23184;51.902;12.836;2022-11-13T11:43:50;9.20;99.90
37300;DHT22;23184;51.902;12.836;2022-11-13T11:46:22;9.30;99.90
37300;DHT22;23184;51.902;12.836;2022-11-13T11:48:49;9.40;99.90
37300;DHT22;23184;51.902;12.836;2022-11-13T11:51:25;9.60;99.90
37300;DHT22;23184;51.902;12.836;2022-11-13T11:56:52;9.90;99.90
37300;DHT22;23184;51.902;12.836;2022-11-13T12:02:01;10.30;99.90
37300;DHT22;23184;51.902;12.836;2022-11-13T12:05:10;10.50;99.90
37300;DHT22;23184;51.902;12.836;2022-11-13T12:13:28;10.70;99.90
37300;DHT22;23184;51.902;12.836;2022-11-13T12:16:09;10.70;99.90
37300;DHT22;23184;51.902;12.836;2022-11-13T12:30:32;10.60;99.90
37300;DHT22;23184;51.902;12.836;2022-11-13T12:35:28;10.60;99.90
37300;DHT22;23184;51.902;12.836;2022-11-13T12:43:52;10.80;99.90
37300;DHT22;23184;51.902;12.836;2022-11-13T12:46:21;10.80;99.90
37300;DHT22;23184;51.902;12.836;2022-11-13T12:48:56;10.90;99.90
37300;DHT22;23184;51.902;12.836;2022-11-13T12:51:22;10.90;99.90
37300;DHT22;23184;51.902;12.836;2022-11-13T12:53:52;10.90;99.90
37300;DHT22;23184;51.902;12.836;2022-11-13T13:01:19;10.90;99.90
37300;DHT22;23184;51.902;12.836;2022-11-13T13:03:50;10.90;99.90
37300;DHT22;23184;51.902;12.836;2022-11-13T13:08:55;11.00;99.90
37300;DHT22;23184;51.902;12.836;2022-11-13T13:14:24;11.00;99.90
37300;DHT22;23184;51.902;12.836;2022-11-13T13:17:04;11.00;99.90
37300;DHT22;23184;51.902;12.836;2022-11-13T13:19:31;11.00;99.90
37300;DHT22;23184;51.902;12.836;2022-11-13T13:21:57;11.00;99.90
37300;DHT22;23184;51.902;12.836;2022-11-13T13:24:34;11.00;99.90
37300;DHT22;23184;51.902;12.836;2022-11-13T13:27:00;11.00;99.90
37300;DHT22;23184;51.902;12.836;2022-11-13T13:29:28;11.10;99.90
37300;DHT22;23184;51.902;12.836;2022-11-13T13:32:17;11.00;99.90
37300;DHT22;23184;51.902;12.836;2022-11-13T13:37:51;11.00;99.90
37300;DHT22;23184;51.902;12.836;2022-11-13T13:48:20;11.10;99.90
37300;DHT22;23184;51.902;12.836;2022-11-13T13:50:47;11.20;99.90
37300;DHT22;23184;51.902;12.836;2022-11-13T13:53:21;11.20;99.90
37300;DHT22;23184;51.902;12.836;2022-11-13T13:55:51;11.20;99.90
37300;DHT22;23184;51.902;12.836;2022-11-13T13:58:28;11.20;99.90
37300;DHT22;23184;51.902;12.836;2022-11-13T14:01:00;11.30;99.90
37300;DHT22;23184;51.902;12.836;2022-11-13T14:03:26;11.40;99.90
37300;DHT22;23184;51.902;12.836;2022-11-13T14:05:54;11.60;99.90
37300;DHT22;23184;51.902;12.836;2022-11-13T14:08:24;11.80;99.90
37300;DHT22;23184;51.902;12.836;2022-11-13T14:10:50;12.00;99.90
37300;DHT22;23184;51.902;12.836;2022-11-13T14:13:27;12.30;99.90
37300;DHT22;23184;51.902;12.836;2022-11-13T14:16:05;12.60;99.90
37300;DHT22;23184;51.902;12.836;2022-11-13T14:18:31;13.00;99.90
37300;DHT22;23184;51.902;12.836;2022-11-13T14:21:04;13.20;99.90
37300;DHT22;23184;51.902;12.836;2022-11-13T14:23:36;13.60;99.90
37300;DHT22;23184;51.902;12.836;2022-11-13T14:26:04;14.10;99.90
37300;DHT22;23184;51.902;12.836;2022-11-13T14:28:45;15.00;99.90
37300;DHT22;23184;51.902;12.836;2022-11-13T14:31:13;15.90;99.90
37300;DHT22;23184;51.902;12.836;2022-11-13T14:33:44;16.50;99.90
37300;DHT22;23184;51.902;12.836;2022-11-13T14:36:11;17.00;99.90
37300;DHT22;23184;51.902;12.836;2022-11-13T14:38:42;17.50;99.90
37300;DHT22;23184;51.902;12.836;2022-11-13T14:41:35;17.60;99.90
37300;DHT22;23184;51.902;12.836;2022-11-13T14:44:01;17.70;99.90
37300;DHT22;23184;51.902;12.836;2022-11-13T14:46:41;17.50;99.90
37300;DHT22;23184;51.902;12.836;2022-11-13T14:51:54;16.60;99.90
37300;DHT22;23184;51.902;12.836;2022-11-13T14:54:35;16.20;99.90
37300;DHT22;23184;51.902;12.836;2022-11-13T14:57:12;15.80;99.90
37300;DHT22;23184;51.902;12.836;2022-11-13T14:59:38;15.20;99.90
37300;DHT22;23184;51.902;12.836;2022-11-13T15:02:09;14.60;99.90
37300;DHT22;23184;51.902;12.836;2022-11-13T15:04:36;14.20;99.90
37300;DHT22;23184;51.902;12.836;2022-11-13T15:07:18;13.80;99.90
37300;DHT22;23184;51.902;12.836;2022-11-13T15:09:43;13.40;99.90
37300;DHT22;23184;51.902;12.836;2022-11-13T15:12:10;12.90;99.90
37300;DHT22;23184;51.902;12.836;2022-11-13T15:14:38;12.50;99.90
37300;DHT22;23184;51.902;12.836;2022-11-13T15:17:09;12.10;99.90
37300;DHT22;23184;51.902;12.836;2022-11-13T15:19:37;11.60;99.90
37300;DHT22;23184;51.902;12.836;2022-11-13T15:22:03;11.20;99.90
37300;DHT22;23184;51.902;12.836;2022-11-13T15:24:28;10.60;99.90
37300;DHT22;23184;51.902;12.836;2022-11-13T15:26:54;10.30;99.90
37300;DHT22;23184;51.902;12.836;2022-11-13T15:29:19;10.00;99.90
37300;DHT22;23184;51.902;12.836;2022-11-13T15:31:46;9.80;99.90
37300;DHT22;23184;51.902;12.836;2022-11-13T15:34:13;9.60;99.90
37300;DHT22;23184;51.902;12.836;2022-11-13T15:37:07;9.40;99.90
37300;DHT22;23184;51.902;12.836;2022-11-13T15:39:33;9.30;99.90
37300;DHT22;23184;51.902;12.836;2022-11-13T15:42:00;9.20;99.90
37300;DHT22;23184;51.902;12.836;2022-11-13T15:44:25;9.10;99.90
37300;DHT22;23184;51.902;12.836;2022-11-13T15:46:51;9.00;99.90
37300;DHT22;23184;51.902;12.836;2022-11-13T15:49:16;8.90;99.90
37300;DHT22;23184;51.902;12.836;2022-11-13T15:51:43;8.80;99.90
37300;DHT22;23184;51.902;12.836;2022-11-13T15:54:32;8.70;99.90
37300;DHT22;23184;51.902;12.836;2022-11-13T15:56:58;8.70;99.90
37300;DHT22;23184;51.902;12.836;2022-11-13T15:59:24;8.70;99.90
37300;DHT22;23184;51.902;12.836;2022-11-13T16:01:49;8.60;99.90
37300;DHT22;23184;51.902;12.836;2022-11-13T16:04:15;8.50;99.90
37300;DHT22;23184;51.902;12.836;2022-11-13T16:06:42;8.50;99.90
37300;DHT22;23184;51.902;12.836;2022-11-13T16:09:14;8.40;99.90
37300;DHT22;23184;51.902;12.836;2022-11-13T16:11:40;8.40;99.90
37300;DHT22;23184;51.902;12.836;2022-11-13T16:14:06;8.30;99.90
37300;DHT22;23184;51.902;12.836;2022-11-13T16:16:37;8.30;99.90
37300;DHT22;23184;51.902;12.836;2022-11-13T16:19:10;8.20;99.90
37300;DHT22;23184;51.902;12.836;2022-11-13T16:21:36;8.10;99.90
37300;DHT22;23184;51.902;12.836;2022-11-13T16:24:02;8.10;99.90
37300;DHT22;23184;51.902;12.836;2022-11-13T16:26:28;8.00;99.90
37300;DHT22;23184;51.902;12.836;2022-11-13T16:28:54;8.00;99.90
37300;DHT22;23184;51.902;12.836;2022-11-13T16:31:20;8.00;99.90
37300;DHT22;23184;51.902;12.836;2022-11-13T16:33:46;7.90;99.90
37300;DHT22;23184;51.902;12.836;2022-11-13T16:36:17;7.90;99.90
37300;DHT22;23184;51.902;12.836;2022-11-13T16:38:43;7.80;99.90
37300;DHT22;23184;51.902;12.836;2022-11-13T16:41:10;7.80;99.90
37300;DHT22;23184;51.902;12.836;2022-11-13T16:43:36;7.70;99.90
37300;DHT22;23184;51.902;12.836;2022-11-13T16:46:23;7.70;99.90
37300;DHT22;23184;51.902;12.836;2022-11-13T16:48:50;7.60;99.90
37300;DHT22;23184;51.902;12.836;2022-11-13T16:51:16;7.60;99.90